sensor_id;sensor_type;location;lat;lon;timestamp;P1;durP1;ratioP1;P2;durP2;ratioP2
68072;SDS011;54862;51.502;7.446;2022-11-20T00:01:07;23.20;;;10.95;;
68072;SDS011;54862;51.502;7.446;2022-11-20T00:03:34;22.35;;;11.45;;
68072;SDS011;54862;51.502;7.446;2022-11-20T00:06:10;21.63;;;10.68;;
68072;SDS011;54862;51.502;7.446;2022-11-20T00:08:36;26.25;;;11.73;;
68072;SDS011;54862;51.502;7.446;2022-11-20T00:11:03;23.35;;;10.95;;
68072;SDS011;54862;51.502;7.446;2022-11-20T00:13:30;21.85;;;11.00;;
68072;SDS011;54862;51.502;7.446;2022-11-20T00:15:56;23.20;;;11.65;;
68072;SDS011;54862;51.502;7.446;2022-11-20T00:18:23;23.80;;;11.13;;
68072;SDS011;54862;51.502;7.446;2022-11-20T00:20:49;26.42;;;11.77;;
68072;SDS011;54862;51.502;7.446;2022-11-20T00:23:15;25.67;;;12.75;;
68072;SDS011;54862;51.502;7.446;2022-11-20T00:25:41;23.83;;;11.85;;
68072;SDS011;54862;51.502;7.446;2022-11-20T00:28:07;22.35;;;11.40;;
68072;SDS011;54862;51.502;7.446;2022-11-20T00:30:33;22.63;;;11.75;;
68072;SDS011;54862;51.502;7.446;2022-11-20T00:32:59;24.52;;;12.45;;
68072;SDS011;54862;51.502;7.446;2022-11-20T00:35:25;22.85;;;11.43;;
68072;SDS011;54862;51.502;7.446;2022-11-20T00:37:51;26.00;;;12.88;;
68072;SDS011;54862;51.502;7.446;2022-11-20T00:40:17;24.98;;;12.35;;
68072;SDS011;54862;51.502;7.446;2022-11-20T00:42:43;26.23;;;11.95;;
68072;SDS011;54862;51.502;7.446;2022-11-20T00:45:09;26.30;;;12.80;;
68072;SDS011;54862;51.502;7.446;2022-11-20T00:47:35;24.98;;;12.50;;
68072;SDS011;54862;51.502;7.446;2022-11-20T00:50:01;25.55;;;11.93;;
68072;SDS011;54862;51.502;7.446;2022-11-20T00:52:27;26.88;;;12.75;;
68072;SDS011;54862;51.502;7.446;2022-11-20T00:54:53;28.00;;;12.93;;
68072;SDS011;54862;51.502;7.446;2022-11-20T00:57:19;26.17;;;12.15;;
68072;SDS011;54862;51.502;7.446;2022-11-20T00:59:45;26.63;;;12.40;;
68072;SDS011;54862;51.502;7.446;2022-11-20T01:02:10;25.70;;;12.75;;
68072;SDS011;54862;51.502;7.446;2022-11-20T01:04:36;28.67;;;13.27;;
68072;SDS011;54862;51.502;7.446;2022-11-20T01:07:02;24.98;;;12.63;;
68072;SDS011;54862;51.502;7.446;2022-11-20T01:09:28;27.02;;;13.57;;
68072;SDS011;54862;51.502;7.446;2022-11-20T01:11:54;27.85;;;13.90;;
68072;SDS011;54862;51.502;7.446;2022-11-20T01:14:21;25.77;;;12.93;;
68072;SDS011;54862;51.502;7.446;2022-11-20T01:16:50;25.38;;;12.68;;
68072;SDS011;54862;51.502;7.446;2022-11-20T01:19:17;23.02;;;12.20;;
68072;SDS011;54862;51.502;7.446;2022-11-20T01:21:44;25.38;;;12.55;;
68072;SDS011;54862;51.502;7.446;2022-11-20T01:24:12;28.35;;;13.07;;
68072;SDS011;54862;51.502;7.446;2022-11-20T01:26:38;24.90;;;12.40;;
68072;SDS011;54862;51.502;7.446;2022-11-20T01:29:05;24.20;;;11.63;;
68072;SDS011;54862;51.502;7.446;2022-11-20T01:31:32;26.48;;;12.40;;
68072;SDS011;54862;51.502;7.446;2022-11-20T01:34:03;26.25;;;13.00;;
68072;SDS011;54862;51.502;7.446;2022-11-20T01:36:30;24.92;;;12.77;;
68072;SDS011;54862;51.502;7.446;2022-11-20T01:38:58;25.35;;;12.05;;
68072;SDS011;54862;51.502;7.446;2022-11-20T01:41:25;30.58;;;13.60;;
68072;SDS011;54862;51.502;7.446;2022-11-20T01:44:10;28.00;;;13.68;;
68072;SDS011;54862;51.502;7.446;2022-11-20T01:46:38;24.30;;;12.45;;
68072;SDS011;54862;51.502;7.446;2022-11-20T01:49:16;26.45;;;12.38;;
68072;SDS011;54862;51.502;7.446;2022-11-20T01:51:49;25.02;;;12.10;;
68072;SDS011;54862;51.502;7.446;2022-11-20T01:54:18;25.70;;;12.35;;
68072;SDS011;54862;51.502;7.446;2022-11-20T01:56:45;25.45;;;13.05;;
68072;SDS011;54862;51.502;7.446;2022-11-20T01:59:13;24.02;;;12.02;;
68072;SDS011;54862;51.502;7.446;2022-11-20T02:01:41;26.55;;;12.32;;
68072;SDS011;54862;51.502;7.446;2022-11-20T02:04:07;26.15;;;13.43;;
68072;SDS011;54862;51.502;7.446;2022-11-20T02:06:43;26.98;;;13.07;;
68072;SDS011;54862;51.502;7.446;2022-11-20T02:09:10;23.50;;;12.27;;
68072;SDS011;54862;51.502;7.446;2022-11-20T02:11:36;24.13;;;11.75;;
68072;SDS011;54862;51.502;7.446;2022-11-20T02:14:02;25.58;;;13.02;;
68072;SDS011;54862;51.502;7.446;2022-11-20T02:16:30;23.98;;;12.60;;
68072;SDS011;54862;51.502;7.446;2022-11-20T02:18:57;25.75;;;11.95;;
68072;SDS011;54862;51.502;7.446;2022-11-20T02:26:22;20.75;;;11.68;;
68072;SDS011;54862;51.502;7.446;2022-11-20T02:28:48;23.65;;;12.50;;
68072;SDS011;54862;51.502;7.446;2022-11-20T02:31:14;22.15;;;11.55;;
68072;SDS011;54862;51.502;7.446;2022-11-20T02:33:40;23.08;;;12.93;;
68072;SDS011;54862;51.502;7.446;2022-11-20T02:36:07;22.52;;;11.80;;
68072;SDS011;54862;51.502;7.446;2022-11-20T02:38:34;20.85;;;11.68;;
68072;SDS011;54862;51.502;7.446;2022-11-20T02:41:00;22.10;;;10.90;;
68072;SDS011;54862;51.502;7.446;2022-11-20T02:43:26;21.33;;;11.10;;
68072;SDS011;54862;51.502;7.446;2022-11-20T02:45:52;23.85;;;12.15;;
68072;SDS011;54862;51.502;7.446;2022-11-20T02:48:18;24.70;;;11.45;;
68072;SDS011;54862;51.502;7.446;2022-11-20T02:50:43;22.77;;;11.73;;
68072;SDS011;54862;51.502;7.446;2022-11-20T02:53:10;24.48;;;11.23;;
68072;SDS011;54862;51.502;7.446;2022-11-20T02:55:36;24.40;;;11.60;;
68072;SDS011;54862;51.502;7.446;2022-11-20T02:58:02;27.98;;;11.93;;
68072;SDS011;54862;51.502;7.446;2022-11-20T03:00:28;22.13;;;11.48;;
68072;SDS011;54862;51.502;7.446;2022-11-20T03:02:54;23.08;;;11.07;;
68072;SDS011;54862;51.502;7.446;2022-11-20T03:05:20;22.77;;;10.98;;
68072;SDS011;54862;51.502;7.446;2022-11-20T03:07:46;24.13;;;12.20;;
68072;SDS011;54862;51.502;7.446;2022-11-20T03:10:12;22.95;;;11.15;;
68072;SDS011;54862;51.502;7.446;2022-11-20T03:12:38;21.92;;;11.80;;
68072;SDS011;54862;51.502;7.446;2022-11-20T03:15:04;23.52;;;11.57;;
68072;SDS011;54862;51.502;7.446;2022-11-20T03:17:30;27.45;;;12.45;;
68072;SDS011;54862;51.502;7.446;2022-11-20T03:19:56;23.65;;;11.45;;
68072;SDS011;54862;51.502;7.446;2022-11-20T03:22:22;23.23;;;11.88;;
68072;SDS011;54862;51.502;7.446;2022-11-20T03:24:48;23.33;;;11.68;;
68072;SDS011;54862;51.502;7.446;2022-11-20T03:27:14;24.50;;;11.68;;
68072;SDS011;54862;51.502;7.446;2022-11-20T03:29:40;25.98;;;11.43;;
68072;SDS011;54862;51.502;7.446;2022-11-20T03:32:06;20.63;;;10.45;;
68072;SDS011;54862;51.502;7.446;2022-11-20T03:34:32;22.88;;;10.90;;
68072;SDS011;54862;51.502;7.446;2022-11-20T03:36:58;25.92;;;11.27;;
68072;SDS011;54862;51.502;7.446;2022-11-20T03:39:24;21.17;;;11.20;;
68072;SDS011;54862;51.502;7.446;2022-11-20T03:41:51;20.35;;;10.52;;
68072;SDS011;54862;51.502;7.446;2022-11-20T03:44:17;21.33;;;11.10;;
68072;SDS011;54862;51.502;7.446;2022-11-20T03:46:43;23.63;;;11.13;;
68072;SDS011;54862;51.502;7.446;2022-11-20T03:49:09;24.00;;;10.45;;
68072;SDS011;54862;51.502;7.446;2022-11-20T03:51:35;24.63;;;12.10;;
68072;SDS011;54862;51.502;7.446;2022-11-20T03:54:02;26.35;;;12.93;;
68072;SDS011;54862;51.502;7.446;2022-11-20T03:56:29;25.77;;;11.60;;
68072;SDS011;54862;51.502;7.446;2022-11-20T03:58:55;24.73;;;12.07;;
68072;SDS011;54862;51.502;7.446;2022-11-20T04:01:22;26.63;;;11.80;;
68072;SDS011;54862;51.502;7.446;2022-11-20T04:03:48;23.83;;;10.82;;
68072;SDS011;54862;51.502;7.446;2022-11-20T04:06:16;25.88;;;12.93;;
68072;SDS011;54862;51.502;7.446;2022-11-20T04:08:42;22.30;;;11.88;;
68072;SDS011;54862;51.502;7.446;2022-11-20T04:11:16;24.77;;;12.88;;
68072;SDS011;54862;51.502;7.446;2022-11-20T04:13:45;26.10;;;12.05;;
68072;SDS011;54862;51.502;7.446;2022-11-20T04:16:11;23.50;;;11.35;;
68072;SDS011;54862;51.502;7.446;2022-11-20T04:18:37;23.30;;;12.60;;
68072;SDS011;54862;51.502;7.446;2022-11-20T04:21:04;25.35;;;11.77;;
68072;SDS011;54862;51.502;7.446;2022-11-20T04:23:30;23.90;;;12.15;;
68072;SDS011;54862;51.502;7.446;2022-11-20T04:26:03;22.15;;;11.15;;
68072;SDS011;54862;51.502;7.446;2022-11-20T04:28:29;26.10;;;11.70;;
68072;SDS011;54862;51.502;7.446;2022-11-20T04:31:01;23.90;;;11.35;;
68072;SDS011;54862;51.502;7.446;2022-11-20T04:33:27;22.70;;;12.65;;
68072;SDS011;54862;51.502;7.446;2022-11-20T04:35:53;22.27;;;12.13;;
68072;SDS011;54862;51.502;7.446;2022-11-20T04:38:19;23.83;;;11.90;;
68072;SDS011;54862;51.502;7.446;2022-11-20T04:40:45;23.30;;;10.95;;
68072;SDS011;54862;51.502;7.446;2022-11-20T04:43:11;20.15;;;10.80;;
68072;SDS011;54862;51.502;7.446;2022-11-20T04:45:37;23.27;;;10.30;;
68072;SDS011;54862;51.502;7.446;2022-11-20T04:48:03;20.45;;;10.15;;
68072;SDS011;54862;51.502;7.446;2022-11-20T04:50:29;19.60;;;10.10;;
68072;SDS011;54862;51.502;7.446;2022-11-20T04:52:55;20.30;;;11.35;;
68072;SDS011;54862;51.502;7.446;2022-11-20T04:55:21;24.10;;;11.73;;
68072;SDS011;54862;51.502;7.446;2022-11-20T04:57:49;23.77;;;11.35;;
68072;SDS011;54862;51.502;7.446;2022-11-20T05:00:16;22.83;;;12.18;;
68072;SDS011;54862;51.502;7.446;2022-11-20T05:02:42;24.10;;;12.05;;
68072;SDS011;54862;51.502;7.446;2022-11-20T05:05:08;25.90;;;13.10;;
68072;SDS011;54862;51.502;7.446;2022-11-20T05:07:34;22.88;;;11.95;;
68072;SDS011;54862;51.502;7.446;2022-11-20T05:10:00;22.58;;;11.70;;
68072;SDS011;54862;51.502;7.446;2022-11-20T05:12:26;22.58;;;11.32;;
68072;SDS011;54862;51.502;7.446;2022-11-20T05:14:53;25.67;;;11.90;;
68072;SDS011;54862;51.502;7.446;2022-11-20T05:17:19;23.90;;;12.50;;
68072;SDS011;54862;51.502;7.446;2022-11-20T05:19:45;25.38;;;13.30;;
68072;SDS011;54862;51.502;7.446;2022-11-20T05:22:11;25.55;;;11.90;;
68072;SDS011;54862;51.502;7.446;2022-11-20T05:24:37;21.08;;;11.88;;
68072;SDS011;54862;51.502;7.446;2022-11-20T05:27:03;23.70;;;11.93;;
68072;SDS011;54862;51.502;7.446;2022-11-20T05:29:29;25.10;;;13.05;;
68072;SDS011;54862;51.502;7.446;2022-11-20T05:31:55;23.98;;;12.10;;
68072;SDS011;54862;51.502;7.446;2022-11-20T05:34:21;25.42;;;12.20;;
68072;SDS011;54862;51.502;7.446;2022-11-20T05:36:47;23.50;;;11.85;;
68072;SDS011;54862;51.502;7.446;2022-11-20T05:39:13;25.88;;;12.55;;
68072;SDS011;54862;51.502;7.446;2022-11-20T05:41:39;24.70;;;12.18;;
68072;SDS011;54862;51.502;7.446;2022-11-20T05:44:05;26.35;;;12.32;;
68072;SDS011;54862;51.502;7.446;2022-11-20T05:46:31;22.58;;;11.98;;
68072;SDS011;54862;51.502;7.446;2022-11-20T05:48:57;24.20;;;11.75;;
68072;SDS011;54862;51.502;7.446;2022-11-20T05:51:24;23.20;;;12.57;;
68072;SDS011;54862;51.502;7.446;2022-11-20T05:53:50;28.90;;;12.57;;
68072;SDS011;54862;51.502;7.446;2022-11-20T05:56:18;27.80;;;12.55;;
68072;SDS011;54862;51.502;7.446;2022-11-20T05:58:44;25.25;;;12.05;;
68072;SDS011;54862;51.502;7.446;2022-11-20T06:01:12;23.98;;;11.88;;
68072;SDS011;54862;51.502;7.446;2022-11-20T06:03:39;19.02;;;10.48;;
68072;SDS011;54862;51.502;7.446;2022-11-20T06:06:06;22.73;;;10.98;;
68072;SDS011;54862;51.502;7.446;2022-11-20T06:08:32;21.35;;;11.20;;
68072;SDS011;54862;51.502;7.446;2022-11-20T06:10:58;25.95;;;10.70;;
68072;SDS011;54862;51.502;7.446;2022-11-20T06:13:24;24.20;;;11.43;;
68072;SDS011;54862;51.502;7.446;2022-11-20T06:15:51;22.85;;;10.88;;
68072;SDS011;54862;51.502;7.446;2022-11-20T06:18:17;23.80;;;11.40;;
68072;SDS011;54862;51.502;7.446;2022-11-20T06:20:44;23.20;;;11.07;;
68072;SDS011;54862;51.502;7.446;2022-11-20T06:23:10;21.60;;;11.60;;
68072;SDS011;54862;51.502;7.446;2022-11-20T06:25:39;21.42;;;10.68;;
68072;SDS011;54862;51.502;7.446;2022-11-20T06:28:06;18.98;;;10.95;;
68072;SDS011;54862;51.502;7.446;2022-11-20T06:30:32;21.23;;;10.68;;
68072;SDS011;54862;51.502;7.446;2022-11-20T06:32:58;22.10;;;11.15;;
68072;SDS011;54862;51.502;7.446;2022-11-20T06:35:24;20.65;;;10.25;;
68072;SDS011;54862;51.502;7.446;2022-11-20T06:37:50;21.85;;;11.77;;
68072;SDS011;54862;51.502;7.446;2022-11-20T06:40:16;20.75;;;10.70;;
68072;SDS011;54862;51.502;7.446;2022-11-20T06:42:42;23.55;;;11.02;;
68072;SDS011;54862;51.502;7.446;2022-11-20T06:45:08;22.65;;;11.43;;
68072;SDS011;54862;51.502;7.446;2022-11-20T06:47:34;23.48;;;11.45;;
68072;SDS011;54862;51.502;7.446;2022-11-20T06:50:00;22.33;;;11.98;;
68072;SDS011;54862;51.502;7.446;2022-11-20T06:52:26;24.40;;;10.95;;
68072;SDS011;54862;51.502;7.446;2022-11-20T06:54:52;21.88;;;10.85;;
68072;SDS011;54862;51.502;7.446;2022-11-20T06:57:18;21.40;;;10.52;;
68072;SDS011;54862;51.502;7.446;2022-11-20T06:59:44;22.20;;;10.65;;
68072;SDS011;54862;51.502;7.446;2022-11-20T07:02:11;22.10;;;10.43;;
68072;SDS011;54862;51.502;7.446;2022-11-20T07:04:37;21.15;;;10.38;;
68072;SDS011;54862;51.502;7.446;2022-11-20T07:07:03;21.05;;;10.63;;
68072;SDS011;54862;51.502;7.446;2022-11-20T07:09:30;23.92;;;11.98;;
68072;SDS011;54862;51.502;7.446;2022-11-20T07:11:56;23.38;;;10.93;;
68072;SDS011;54862;51.502;7.446;2022-11-20T07:14:22;21.95;;;10.73;;
68072;SDS011;54862;51.502;7.446;2022-11-20T07:16:48;21.17;;;10.75;;
68072;SDS011;54862;51.502;7.446;2022-11-20T07:19:14;21.90;;;10.77;;
68072;SDS011;54862;51.502;7.446;2022-11-20T07:21:40;24.60;;;10.90;;
68072;SDS011;54862;51.502;7.446;2022-11-20T07:24:06;21.63;;;11.88;;
68072;SDS011;54862;51.502;7.446;2022-11-20T07:26:32;22.70;;;11.23;;
68072;SDS011;54862;51.502;7.446;2022-11-20T07:28:58;25.15;;;10.85;;
68072;SDS011;54862;51.502;7.446;2022-11-20T07:31:24;19.77;;;10.77;;
68072;SDS011;54862;51.502;7.446;2022-11-20T07:33:50;23.20;;;10.75;;
68072;SDS011;54862;51.502;7.446;2022-11-20T07:36:16;21.80;;;10.77;;
68072;SDS011;54862;51.502;7.446;2022-11-20T07:38:42;20.38;;;10.48;;
68072;SDS011;54862;51.502;7.446;2022-11-20T07:41:08;21.73;;;9.63;;
68072;SDS011;54862;51.502;7.446;2022-11-20T07:43:34;20.67;;;9.85;;
68072;SDS011;54862;51.502;7.446;2022-11-20T07:46:00;23.05;;;10.95;;
68072;SDS011;54862;51.502;7.446;2022-11-20T07:48:26;21.55;;;10.35;;
68072;SDS011;54862;51.502;7.446;2022-11-20T07:50:55;21.20;;;11.02;;
68072;SDS011;54862;51.502;7.446;2022-11-20T07:53:22;21.67;;;10.52;;
68072;SDS011;54862;51.502;7.446;2022-11-20T07:55:48;19.65;;;10.23;;
68072;SDS011;54862;51.502;7.446;2022-11-20T07:58:17;24.55;;;11.15;;
68072;SDS011;54862;51.502;7.446;2022-11-20T08:00:43;21.58;;;11.05;;
68072;SDS011;54862;51.502;7.446;2022-11-20T08:03:09;24.48;;;11.45;;
68072;SDS011;54862;51.502;7.446;2022-11-20T08:05:35;21.20;;;10.43;;
68072;SDS011;54862;51.502;7.446;2022-11-20T08:08:02;23.05;;;11.10;;
68072;SDS011;54862;51.502;7.446;2022-11-20T08:10:28;23.90;;;12.10;;
68072;SDS011;54862;51.502;7.446;2022-11-20T08:12:54;23.38;;;11.73;;
68072;SDS011;54862;51.502;7.446;2022-11-20T08:15:39;25.08;;;11.27;;
68072;SDS011;54862;51.502;7.446;2022-11-20T08:18:06;24.30;;;11.27;;
68072;SDS011;54862;51.502;7.446;2022-11-20T08:20:33;23.90;;;10.25;;
68072;SDS011;54862;51.502;7.446;2022-11-20T08:23:00;25.52;;;11.98;;
68072;SDS011;54862;51.502;7.446;2022-11-20T08:25:27;22.17;;;10.80;;
68072;SDS011;54862;51.502;7.446;2022-11-20T08:27:53;21.48;;;11.05;;
68072;SDS011;54862;51.502;7.446;2022-11-20T08:30:19;22.30;;;11.50;;
68072;SDS011;54862;51.502;7.446;2022-11-20T08:32:45;25.88;;;11.38;;
68072;SDS011;54862;51.502;7.446;2022-11-20T08:35:11;23.15;;;11.70;;
68072;SDS011;54862;51.502;7.446;2022-11-20T08:37:37;21.35;;;10.82;;
68072;SDS011;54862;51.502;7.446;2022-11-20T08:40:06;19.67;;;11.20;;
68072;SDS011;54862;51.502;7.446;2022-11-20T08:42:32;23.80;;;10.70;;
68072;SDS011;54862;51.502;7.446;2022-11-20T08:44:58;25.92;;;11.52;;
68072;SDS011;54862;51.502;7.446;2022-11-20T08:47:24;22.88;;;11.68;;
68072;SDS011;54862;51.502;7.446;2022-11-20T08:49:50;23.67;;;11.65;;
68072;SDS011;54862;51.502;7.446;2022-11-20T08:52:16;24.25;;;12.23;;
68072;SDS011;54862;51.502;7.446;2022-11-20T08:54:42;22.27;;;10.80;;
68072;SDS011;54862;51.502;7.446;2022-11-20T08:57:08;23.45;;;11.30;;
68072;SDS011;54862;51.502;7.446;2022-11-20T08:59:34;23.98;;;11.23;;
68072;SDS011;54862;51.502;7.446;2022-11-20T09:02:00;22.67;;;12.18;;
68072;SDS011;54862;51.502;7.446;2022-11-20T09:04:26;22.98;;;11.82;;
68072;SDS011;54862;51.502;7.446;2022-11-20T09:06:52;23.02;;;11.25;;
68072;SDS011;54862;51.502;7.446;2022-11-20T09:09:18;26.33;;;12.00;;
68072;SDS011;54862;51.502;7.446;2022-11-20T09:11:44;24.63;;;11.75;;
68072;SDS011;54862;51.502;7.446;2022-11-20T09:14:10;22.52;;;11.45;;
68072;SDS011;54862;51.502;7.446;2022-11-20T09:16:36;22.33;;;11.85;;
68072;SDS011;54862;51.502;7.446;2022-11-20T09:19:02;24.30;;;12.88;;
68072;SDS011;54862;51.502;7.446;2022-11-20T09:21:28;25.13;;;11.25;;
68072;SDS011;54862;51.502;7.446;2022-11-20T09:23:54;21.83;;;12.25;;
68072;SDS011;54862;51.502;7.446;2022-11-20T09:26:20;25.13;;;12.07;;
68072;SDS011;54862;51.502;7.446;2022-11-20T09:28:46;24.95;;;11.65;;
68072;SDS011;54862;51.502;7.446;2022-11-20T09:31:17;23.90;;;12.00;;
68072;SDS011;54862;51.502;7.446;2022-11-20T09:33:45;20.52;;;10.95;;
68072;SDS011;54862;51.502;7.446;2022-11-20T09:36:11;25.50;;;12.45;;
68072;SDS011;54862;51.502;7.446;2022-11-20T09:38:37;22.48;;;11.25;;
68072;SDS011;54862;51.502;7.446;2022-11-20T09:41:04;21.15;;;11.55;;
68072;SDS011;54862;51.502;7.446;2022-11-20T09:53:45;23.42;;;11.02;;
68072;SDS011;54862;51.502;7.446;2022-11-20T09:56:13;24.75;;;10.65;;
68072;SDS011;54862;51.502;7.446;2022-11-20T09:58:40;23.98;;;11.75;;
68072;SDS011;54862;51.502;7.446;2022-11-20T10:01:15;24.15;;;11.98;;
68072;SDS011;54862;51.502;7.446;2022-11-20T10:06:08;22.50;;;11.32;;
68072;SDS011;54862;51.502;7.446;2022-11-20T10:08:41;25.60;;;11.23;;
68072;SDS011;54862;51.502;7.446;2022-11-20T10:11:14;25.92;;;11.50;;
68072;SDS011;54862;51.502;7.446;2022-11-20T10:16:38;21.17;;;10.93;;
68072;SDS011;54862;51.502;7.446;2022-11-20T10:24:25;25.73;;;10.98;;
68072;SDS011;54862;51.502;7.446;2022-11-20T10:27:03;25.23;;;12.25;;
68072;SDS011;54862;51.502;7.446;2022-11-20T10:29:33;22.58;;;10.77;;
68072;SDS011;54862;51.502;7.446;2022-11-20T10:32:03;24.52;;;11.60;;
68072;SDS011;54862;51.502;7.446;2022-11-20T10:37:18;21.75;;;10.63;;
68072;SDS011;54862;51.502;7.446;2022-11-20T10:45:11;17.25;;;8.27;;
68072;SDS011;54862;51.502;7.446;2022-11-20T10:47:39;17.40;;;8.18;;
68072;SDS011;54862;51.502;7.446;2022-11-20T10:50:05;13.80;;;6.85;;
68072;SDS011;54862;51.502;7.446;2022-11-20T10:58:08;14.75;;;7.65;;
68072;SDS011;54862;51.502;7.446;2022-11-20T11:00:36;18.35;;;7.85;;
68072;SDS011;54862;51.502;7.446;2022-11-20T11:03:02;18.45;;;8.18;;
68072;SDS011;54862;51.502;7.446;2022-11-20T11:08:03;15.48;;;6.88;;
68072;SDS011;54862;51.502;7.446;2022-11-20T11:10:38;15.77;;;6.68;;
68072;SDS011;54862;51.502;7.446;2022-11-20T11:13:06;15.05;;;7.35;;
68072;SDS011;54862;51.502;7.446;2022-11-20T11:15:39;16.42;;;7.80;;
68072;SDS011;54862;51.502;7.446;2022-11-20T11:20:31;18.23;;;7.15;;
68072;SDS011;54862;51.502;7.446;2022-11-20T11:22:57;16.75;;;7.32;;
68072;SDS011;54862;51.502;7.446;2022-11-20T11:25:28;15.77;;;7.85;;
68072;SDS011;54862;51.502;7.446;2022-11-20T11:27:55;13.65;;;7.32;;
68072;SDS011;54862;51.502;7.446;2022-11-20T11:30:22;20.83;;;7.47;;
68072;SDS011;54862;51.502;7.446;2022-11-20T11:32:48;17.10;;;7.90;;
68072;SDS011;54862;51.502;7.446;2022-11-20T11:35:19;18.85;;;8.13;;
68072;SDS011;54862;51.502;7.446;2022-11-20T11:37:46;18.70;;;8.45;;
68072;SDS011;54862;51.502;7.446;2022-11-20T11:40:13;18.95;;;8.18;;
68072;SDS011;54862;51.502;7.446;2022-11-20T11:42:58;14.38;;;7.35;;
68072;SDS011;54862;51.502;7.446;2022-11-20T11:45:25;20.48;;;8.88;;
68072;SDS011;54862;51.502;7.446;2022-11-20T11:47:52;15.57;;;8.02;;
68072;SDS011;54862;51.502;7.446;2022-11-20T11:50:20;14.10;;;6.95;;
68072;SDS011;54862;51.502;7.446;2022-11-20T11:55:19;16.95;;;8.60;;
68072;SDS011;54862;51.502;7.446;2022-11-20T11:57:51;15.48;;;8.10;;
68072;SDS011;54862;51.502;7.446;2022-11-20T12:00:20;15.93;;;8.10;;
68072;SDS011;54862;51.502;7.446;2022-11-20T12:07:52;14.07;;;7.47;;
68072;SDS011;54862;51.502;7.446;2022-11-20T12:12:58;15.85;;;7.72;;
68072;SDS011;54862;51.502;7.446;2022-11-20T12:15:29;14.10;;;7.28;;
68072;SDS011;54862;51.502;7.446;2022-11-20T12:17:55;19.45;;;8.00;;
68072;SDS011;54862;51.502;7.446;2022-11-20T12:20:22;14.50;;;7.53;;
68072;SDS011;54862;51.502;7.446;2022-11-20T12:22:55;16.77;;;7.93;;
68072;SDS011;54862;51.502;7.446;2022-11-20T12:25:26;14.88;;;6.95;;
68072;SDS011;54862;51.502;7.446;2022-11-20T12:28:02;13.65;;;6.95;;
68072;SDS011;54862;51.502;7.446;2022-11-20T12:30:33;15.15;;;7.47;;
68072;SDS011;54862;51.502;7.446;2022-11-20T12:40:44;16.60;;;6.93;;
68072;SDS011;54862;51.502;7.446;2022-11-20T12:43:22;13.63;;;6.90;;
68072;SDS011;54862;51.502;7.446;2022-11-20T12:46:18;13.95;;;6.53;;
68072;SDS011;54862;51.502;7.446;2022-11-20T13:01:45;16.30;;;7.95;;
68072;SDS011;54862;51.502;7.446;2022-11-20T13:06:47;16.50;;;7.70;;
68072;SDS011;54862;51.502;7.446;2022-11-20T13:09:15;15.73;;;7.75;;
68072;SDS011;54862;51.502;7.446;2022-11-20T13:14:16;16.10;;;7.68;;
68072;SDS011;54862;51.502;7.446;2022-11-20T13:16:54;15.30;;;7.85;;
68072;SDS011;54862;51.502;7.446;2022-11-20T13:19:21;15.63;;;7.38;;
68072;SDS011;54862;51.502;7.446;2022-11-20T13:21:48;14.52;;;7.80;;
68072;SDS011;54862;51.502;7.446;2022-11-20T13:26:48;18.45;;;8.25;;
68072;SDS011;54862;51.502;7.446;2022-11-20T13:29:25;19.25;;;8.27;;
68072;SDS011;54862;51.502;7.446;2022-11-20T13:31:51;17.40;;;8.25;;
68072;SDS011;54862;51.502;7.446;2022-11-20T13:34:27;20.27;;;8.98;;
68072;SDS011;54862;51.502;7.446;2022-11-20T13:36:54;19.85;;;9.63;;
68072;SDS011;54862;51.502;7.446;2022-11-20T13:39:30;15.88;;;7.47;;
68072;SDS011;54862;51.502;7.446;2022-11-20T13:41:58;18.73;;;8.38;;
68072;SDS011;54862;51.502;7.446;2022-11-20T13:46:50;17.08;;;7.88;;
68072;SDS011;54862;51.502;7.446;2022-11-20T13:49:17;17.67;;;8.68;;
68072;SDS011;54862;51.502;7.446;2022-11-20T13:51:45;17.33;;;8.10;;
68072;SDS011;54862;51.502;7.446;2022-11-20T14:01:51;16.35;;;8.15;;
68072;SDS011;54862;51.502;7.446;2022-11-20T14:04:25;18.00;;;8.27;;
68072;SDS011;54862;51.502;7.446;2022-11-20T14:06:52;18.70;;;8.52;;
68072;SDS011;54862;51.502;7.446;2022-11-20T14:09:25;17.48;;;8.75;;
68072;SDS011;54862;51.502;7.446;2022-11-20T14:11:51;16.85;;;8.45;;
68072;SDS011;54862;51.502;7.446;2022-11-20T14:14:18;18.00;;;8.70;;
68072;SDS011;54862;51.502;7.446;2022-11-20T14:16:45;18.27;;;8.73;;
68072;SDS011;54862;51.502;7.446;2022-11-20T14:21:51;20.00;;;8.60;;
68072;SDS011;54862;51.502;7.446;2022-11-20T14:24:18;16.88;;;8.77;;
68072;SDS011;54862;51.502;7.446;2022-11-20T14:26:45;18.90;;;8.80;;
68072;SDS011;54862;51.502;7.446;2022-11-20T14:29:18;16.98;;;9.07;;
68072;SDS011;54862;51.502;7.446;2022-11-20T14:34:24;16.95;;;8.07;;
68072;SDS011;54862;51.502;7.446;2022-11-20T14:36:57;15.77;;;7.50;;
68072;SDS011;54862;51.502;7.446;2022-11-20T14:39:31;17.13;;;8.65;;
68072;SDS011;54862;51.502;7.446;2022-11-20T14:41:58;18.55;;;9.05;;
68072;SDS011;54862;51.502;7.446;2022-11-20T14:44:28;18.45;;;8.70;;
68072;SDS011;54862;51.502;7.446;2022-11-20T14:46:55;18.75;;;8.93;;
68072;SDS011;54862;51.502;7.446;2022-11-20T14:49:21;20.65;;;9.77;;
68072;SDS011;54862;51.502;7.446;2022-11-20T14:51:47;16.88;;;8.55;;
68072;SDS011;54862;51.502;7.446;2022-11-20T14:54:23;19.30;;;8.98;;
68072;SDS011;54862;51.502;7.446;2022-11-20T14:57:01;17.00;;;8.77;;
68072;SDS011;54862;51.502;7.446;2022-11-20T14:59:31;17.30;;;8.45;;
68072;SDS011;54862;51.502;7.446;2022-11-20T15:02:01;18.15;;;8.98;;
68072;SDS011;54862;51.502;7.446;2022-11-20T15:04:27;19.83;;;9.15;;
68072;SDS011;54862;51.502;7.446;2022-11-20T15:06:54;17.60;;;8.65;;
68072;SDS011;54862;51.502;7.446;2022-11-20T15:09:21;16.98;;;8.80;;
68072;SDS011;54862;51.502;7.446;2022-11-20T15:12:02;20.00;;;9.48;;
68072;SDS011;54862;51.502;7.446;2022-11-20T15:14:29;18.10;;;8.82;;
68072;SDS011;54862;51.502;7.446;2022-11-20T15:16:56;19.90;;;9.32;;
68072;SDS011;54862;51.502;7.446;2022-11-20T15:19:23;18.80;;;9.05;;
68072;SDS011;54862;51.502;7.446;2022-11-20T15:21:49;16.52;;;9.30;;
68072;SDS011;54862;51.502;7.446;2022-11-20T15:24:15;20.30;;;9.48;;
68072;SDS011;54862;51.502;7.446;2022-11-20T15:26:42;23.15;;;10.85;;
68072;SDS011;54862;51.502;7.446;2022-11-20T15:29:08;19.85;;;10.15;;
68072;SDS011;54862;51.502;7.446;2022-11-20T15:31:35;20.52;;;10.35;;
68072;SDS011;54862;51.502;7.446;2022-11-20T15:34:02;18.88;;;9.48;;
68072;SDS011;54862;51.502;7.446;2022-11-20T15:36:28;20.58;;;9.48;;
68072;SDS011;54862;51.502;7.446;2022-11-20T15:38:54;19.02;;;10.02;;
68072;SDS011;54862;51.502;7.446;2022-11-20T15:41:20;21.08;;;9.77;;
68072;SDS011;54862;51.502;7.446;2022-11-20T15:43:46;20.40;;;10.20;;
68072;SDS011;54862;51.502;7.446;2022-11-20T15:46:13;20.48;;;10.02;;
68072;SDS011;54862;51.502;7.446;2022-11-20T15:48:42;20.38;;;10.35;;
68072;SDS011;54862;51.502;7.446;2022-11-20T15:53:35;21.75;;;10.85;;
68072;SDS011;54862;51.502;7.446;2022-11-20T15:56:01;21.33;;;11.02;;
68072;SDS011;54862;51.502;7.446;2022-11-20T15:58:27;21.83;;;10.55;;
68072;SDS011;54862;51.502;7.446;2022-11-20T16:00:53;22.40;;;11.10;;
68072;SDS011;54862;51.502;7.446;2022-11-20T16:03:19;21.83;;;10.32;;
68072;SDS011;54862;51.502;7.446;2022-11-20T16:05:45;20.65;;;11.00;;
68072;SDS011;54862;51.502;7.446;2022-11-20T16:08:11;24.20;;;10.88;;